Time,TemperatureF,DewpointF,PressureIn,WindDirection,WindDirectionDegrees,WindSpeedMPH,WindSpeedGustMPH,Humidity,HourlyPrecipIn,Conditions,Clouds,dailyrainin,SoftwareType,DateUTC
2013-05-06 00:02:00,40.0,35.0,30.13,NE,38,2.0,-999.0,82,-99.99,,,-99.99,,2013-05-06 04:02:00,
2013-05-06 00:12:00,40.0,35.0,30.13,NE,38,2.0,-999.0,82,-99.99,,,-99.99,,2013-05-06 04:12:00,
2013-05-06 00:23:00,40.0,35.0,30.13,NE,45,2.0,-999.0,83,-99.99,,,-99.99,,2013-05-06 04:23:00,
2013-05-06 00:32:00,39.0,34.0,30.13,NE,44,2.0,-999.0,83,-99.99,,,-99.99,,2013-05-06 04:32:00,
2013-05-06 00:42:00,39.0,34.0,30.13,NE,44,2.0,-999.0,83,-99.99,,,-99.99,,2013-05-06 04:42:00,
2013-05-06 00:52:00,39.0,34.0,30.13,NE,51,1.0,-999.0,83,-99.99,,,-99.99,,2013-05-06 04:52:00,
2013-05-06 01:02:00,39.0,35.0,30.12,NE,51,0.0,-999.0,84,-99.99,,,-99.99,,2013-05-06 05:02:00,
2013-05-06 01:12:00,39.0,35.0,30.12,NE,51,0.0,-999.0,84,-99.99,,,-99.99,,2013-05-06 05:12:00,
2013-05-06 01:22:00,38.0,34.0,30.12,NE,51,0.0,-999.0,85,-99.99,,,-99.99,,2013-05-06 05:22:00,
2013-05-06 01:32:00,38.0,34.0,30.13,NE,51,0.0,-999.0,85,-99.99,,,-99.99,,2013-05-06 05:32:00,
2013-05-06 01:42:00,38.0,34.0,30.13,NE,51,0.0,-999.0,85,-99.99,,,-99.99,,2013-05-06 05:42:00,
2013-05-06 01:52:00,38.0,34.0,30.12,NE,51,0.0,-999.0,85,-99.99,,,-99.99,,2013-05-06 05:52:00,
2013-05-06 02:02:00,38.0,34.0,30.12,NE,51,0.0,-999.0,85,-99.99,,,-99.99,,2013-05-06 06:02:00,
2013-05-06 02:12:00,38.0,34.0,30.12,NE,51,0.0,-999.0,85,-99.99,,,-99.99,,2013-05-06 06:12:00,
2013-05-06 02:21:00,37.0,33.0,30.12,NE,51,0.0,-999.0,86,-99.99,,,-99.99,,2013-05-06 06:21:00,
2013-05-06 02:32:00,37.0,34.0,30.12,NE,51,0.0,-999.0,87,-99.99,,,-99.99,,2013-05-06 06:32:00,
2013-05-06 02:42:00,37.0,34.0,30.12,NE,51,0.0,-999.0,87,-99.99,,,-99.99,,2013-05-06 06:42:00,
2013-05-06 02:52:00,37.0,34.0,30.12,NE,51,0.0,-999.0,87,-99.99,,,-99.99,,2013-05-06 06:52:00,
2013-05-06 03:01:00,36.0,33.0,30.11,NE,51,0.0,-999.0,88,-99.99,,,-99.99,,2013-05-06 07:01:00,
2013-05-06 03:11:00,36.0,33.0,30.11,NE,51,0.0,-999.0,88,-99.99,,,-99.99,,2013-05-06 07:11:00,
2013-05-06 03:22:00,36.0,33.0,30.11,NE,51,0.0,-999.0,89,-99.99,,,-99.99,,2013-05-06 07:22:00,
2013-05-06 03:31:00,36.0,33.0,30.11,NE,51,0.0,-999.0,88,-99.99,,,-99.99,,2013-05-06 07:31:00,
2013-05-06 03:42:00,36.0,33.0,30.11,NE,51,0.0,-999.0,88,-99.99,,,-99.99,,2013-05-06 07:42:00,
2013-05-06 03:52:00,35.0,32.0,30.10,NE,51,0.0,-999.0,89,-99.99,,,-99.99,,2013-05-06 07:52:00,
2013-05-06 04:02:00,35.0,32.0,30.10,NE,51,0.0,-999.0,89,-99.99,,,-99.99,,2013-05-06 08:02:00,
2013-05-06 04:12:00,35.0,32.0,30.10,NE,51,0.0,-999.0,89,-99.99,,,-99.99,,2013-05-06 08:12:00,
2013-05-06 04:22:00,34.0,31.0,30.10,NE,51,0.0,-999.0,90,-99.99,,,-99.99,,2013-05-06 08:22:00,
2013-05-06 04:31:00,34.0,31.0,30.10,NE,51,0.0,-999.0,90,-99.99,,,-99.99,,2013-05-06 08:31:00,
2013-05-06 04:42:00,34.0,31.0,30.10,NE,51,0.0,-999.0,90,-99.99,,,-99.99,,2013-05-06 08:42:00,
2013-05-06 04:52:00,34.0,31.0,30.10,NE,51,0.0,-999.0,90,-99.99,,,-99.99,,2013-05-06 08:52:00,
2013-05-06 05:01:00,33.0,30.0,30.11,NE,51,0.0,-999.0,90,-99.99,,,-99.99,,2013-05-06 09:01:00,
2013-05-06 05:11:00,33.0,30.0,30.11,NE,51,0.0,-999.0,90,-99.99,,,-99.99,,2013-05-06 09:11:00,
2013-05-06 05:22:00,33.0,30.0,30.11,NE,51,0.0,-999.0,90,-99.99,,,-99.99,,2013-05-06 09:22:00,
2013-05-06 05:33:00,33.0,31.0,30.11,NE,51,0.0,-999.0,91,-99.99,,,-99.99,,2013-05-06 09:33:00,
2013-05-06 05:42:00,33.0,31.0,30.11,NE,51,0.0,-999.0,91,-99.99,,,-99.99,,2013-05-06 09:42:00,
2013-05-06 05:53:00,33.0,31.0,30.11,NE,51,0.0,-999.0,92,-99.99,,,-99.99,,2013-05-06 09:53:00,
2013-05-06 06:02:00,33.0,31.0,30.11,NE,51,0.0,-999.0,92,-99.99,,,-99.99,,2013-05-06 10:02:00,
2013-05-06 06:12:00,33.0,31.0,30.11,NE,51,0.0,-999.0,92,-99.99,,,-99.99,,2013-05-06 10:12:00,
2013-05-06 06:22:00,33.0,31.0,30.11,NE,51,0.0,-999.0,92,-99.99,,,-99.99,,2013-05-06 10:22:00,
2013-05-06 06:33:00,32.0,30.0,30.11,NE,51,0.0,-999.0,92,-99.99,,,-99.99,,2013-05-06 10:33:00,
2013-05-06 06:42:00,32.0,30.0,30.11,NE,51,0.0,-999.0,92,-99.99,,,-99.99,,2013-05-06 10:42:00,
2013-05-06 06:52:00,33.0,31.0,30.11,NE,51,0.0,-999.0,93,-99.99,,,-99.99,,2013-05-06 10:52:00,
2013-05-06 07:02:00,33.0,31.0,30.12,NE,51,0.0,-999.0,92,-99.99,,,-99.99,,2013-05-06 11:02:00,
2013-05-06 07:12:00,33.0,31.0,30.12,NE,51,0.0,-999.0,92,-99.99,,,-99.99,,2013-05-06 11:12:00,
2013-05-06 07:22:00,32.0,30.0,30.11,NE,51,0.0,-999.0,91,-99.99,,,-99.99,,2013-05-06 11:22:00,
2013-05-06 07:31:00,32.0,30.0,30.11,NE,51,0.0,-999.0,92,-99.99,,,-99.99,,2013-05-06 11:31:00,
2013-05-06 07:42:00,32.0,30.0,30.11,NE,51,0.0,-999.0,92,-99.99,,,-99.99,,2013-05-06 11:42:00,
2013-05-06 07:52:00,32.0,30.0,30.12,NE,51,0.0,-999.0,92,-99.99,,,-99.99,,2013-05-06 11:52:00,
2013-05-06 08:01:00,33.0,31.0,30.12,NE,51,0.0,-999.0,94,-99.99,,,-99.99,,2013-05-06 12:01:00,
2013-05-06 08:12:00,33.0,31.0,30.12,NE,51,0.0,-999.0,94,-99.99,,,-99.99,,2013-05-06 12:12:00,
2013-05-06 08:21:00,37.0,35.0,30.13,NE,51,0.0,-999.0,93,-99.99,,,-99.99,,2013-05-06 12:21:00,
2013-05-06 08:32:00,40.0,37.0,30.13,NE,51,0.0,-999.0,88,-99.99,,,-99.99,,2013-05-06 12:32:00,
2013-05-06 08:42:00,40.0,37.0,30.13,NE,51,0.0,-999.0,88,-99.99,,,-99.99,,2013-05-06 12:42:00,
2013-05-06 08:51:00,43.0,38.0,30.13,NE,34,1.0,-999.0,83,-99.99,,,-99.99,,2013-05-06 12:51:00,
2013-05-06 09:01:00,44.0,38.0,30.14,NE,36,1.0,-999.0,80,-99.99,,,-99.99,,2013-05-06 13:01:00,
2013-05-06 09:11:00,44.0,38.0,30.14,NE,36,1.0,-999.0,80,-99.99,,,-99.99,,2013-05-06 13:11:00,
2013-05-06 09:21:00,46.0,39.0,30.14,NE,42,0.0,-999.0,76,-99.99,,,-99.99,,2013-05-06 13:21:00,
2013-05-06 09:32:00,48.0,39.0,30.13,ENE,57,1.0,-999.0,72,-99.99,,,-99.99,,2013-05-06 13:32:00,
2013-05-06 09:42:00,48.0,39.0,30.13,ENE,57,1.0,-999.0,72,-99.99,,,-99.99,,2013-05-06 13:42:00,
2013-05-06 09:52:00,49.0,40.0,30.13,ENE,57,1.0,-999.0,70,-99.99,,,-99.99,,2013-05-06 13:52:00,
2013-05-06 10:01:00,51.0,40.0,30.13,NE,40,1.0,-999.0,67,-99.99,,,-99.99,,2013-05-06 14:01:00,
2013-05-06 10:11:00,51.0,40.0,30.13,NE,40,1.0,-999.0,67,-99.99,,,-99.99,,2013-05-06 14:11:00,
2013-05-06 10:21:00,53.0,42.0,30.13,NE,40,1.0,-999.0,65,-99.99,,,-99.99,,2013-05-06 14:21:00,
2013-05-06 10:42:00,55.0,42.0,30.14,NE,42,1.0,-999.0,62,-99.99,,,-99.99,,2013-05-06 14:42:00,
2013-05-06 10:51:00,56.0,42.0,30.13,ENE,67,2.0,-999.0,59,-99.99,,,-99.99,,2013-05-06 14:51:00,
2013-05-06 11:01:00,57.0,41.0,30.13,ENE,67,0.0,-999.0,56,-99.99,,,-99.99,,2013-05-06 15:01:00,
2013-05-06 11:11:00,57.0,41.0,30.13,ENE,67,0.0,-999.0,56,-99.99,,,-99.99,,2013-05-06 15:11:00,
2013-05-06 11:21:00,59.0,42.0,30.12,NE,53,0.0,-999.0,54,-99.99,,,-99.99,,2013-05-06 15:21:00,
2013-05-06 11:33:00,60.0,43.0,30.12,South,173,1.0,-999.0,53,-99.99,,,-99.99,,2013-05-06 15:33:00,
2013-05-06 11:42:00,60.0,43.0,30.12,South,173,1.0,-999.0,53,-99.99,,,-99.99,,2013-05-06 15:42:00,
2013-05-06 11:53:00,62.0,44.0,30.12,East,96,2.0,-999.0,51,-99.99,,,-99.99,,2013-05-06 15:53:00,
2013-05-06 12:03:00,64.0,43.0,30.11,NNE,27,1.0,-999.0,46,-99.99,,,-99.99,,2013-05-06 16:03:00,
2013-05-06 12:13:00,64.0,43.0,30.11,NNE,27,1.0,-999.0,46,-99.99,,,-99.99,,2013-05-06 16:13:00,
2013-05-06 12:23:00,65.0,43.0,30.11,NE,51,2.0,-999.0,45,-99.99,,,-99.99,,2013-05-06 16:23:00,
2013-05-06 12:32:00,67.0,44.0,30.11,East,96,1.0,-999.0,44,-99.99,,,-99.99,,2013-05-06 16:32:00,
2013-05-06 12:42:00,67.0,44.0,30.11,East,96,1.0,-999.0,44,-99.99,,,-99.99,,2013-05-06 16:42:00,
2013-05-06 12:52:00,68.0,46.0,30.10,SE,131,2.0,-999.0,45,-99.99,,,-99.99,,2013-05-06 16:52:00,
2013-05-06 13:03:00,69.0,42.0,30.10,NNE,28,2.0,-999.0,37,-99.99,,,-99.99,,2013-05-06 17:03:00,
2013-05-06 13:12:00,69.0,42.0,30.10,NNE,28,2.0,-999.0,37,-99.99,,,-99.99,,2013-05-06 17:12:00,
2013-05-06 13:23:00,70.0,44.0,30.09,SE,144,3.0,-999.0,39,-99.99,,,-99.99,,2013-05-06 17:23:00,
2013-05-06 13:31:00,70.0,43.0,30.09,ESE,120,2.0,-999.0,38,-99.99,,,-99.99,,2013-05-06 17:31:00,
2013-05-06 13:42:00,70.0,43.0,30.09,ESE,120,2.0,-999.0,38,-99.99,,,-99.99,,2013-05-06 17:42:00,
2013-05-06 13:52:00,70.0,43.0,30.08,ESE,103,1.0,-999.0,37,-99.99,,,-99.99,,2013-05-06 17:52:00,
2013-05-06 14:01:00,71.0,42.0,30.08,SW,217,1.0,-999.0,35,-99.99,,,-99.99,,2013-05-06 18:01:00,
2013-05-06 14:12:00,71.0,42.0,30.08,SW,217,1.0,-999.0,35,-99.99,,,-99.99,,2013-05-06 18:12:00,
2013-05-06 14:21:00,70.0,45.0,30.08,ENE,68,5.0,-999.0,40,-99.99,,,-99.99,,2013-05-06 18:21:00,
2013-05-06 14:31:00,69.0,45.0,30.08,SE,131,6.0,-999.0,42,-99.99,,,-99.99,,2013-05-06 18:31:00,
2013-05-06 14:43:00,69.0,45.0,30.08,SE,131,6.0,-999.0,42,-99.99,,,-99.99,,2013-05-06 18:43:00,
2013-05-06 14:52:00,68.0,45.0,30.08,NE,38,5.0,-999.0,44,-99.99,,,-99.99,,2013-05-06 18:52:00,
2013-05-06 15:01:00,67.0,44.0,30.07,ENE,74,5.0,-999.0,44,-99.99,,,-99.99,,2013-05-06 19:01:00,
2013-05-06 15:11:00,67.0,44.0,30.07,ENE,74,5.0,-999.0,44,-99.99,,,-99.99,,2013-05-06 19:11:00,
2013-05-06 15:22:00,66.0,44.0,30.08,NE,46,6.0,-999.0,45,-99.99,,,-99.99,,2013-05-06 19:22:00,
2013-05-06 15:32:00,65.0,44.0,30.08,NE,42,5.0,-999.0,47,-99.99,,,-99.99,,2013-05-06 19:32:00,
2013-05-06 15:41:00,65.0,44.0,30.08,NE,42,5.0,-999.0,47,-99.99,,,-99.99,,2013-05-06 19:41:00,
2013-05-06 15:52:00,65.0,43.0,30.07,NNW,343,5.0,-999.0,45,-99.99,,,-99.99,,2013-05-06 19:52:00,
2013-05-06 16:02:00,66.0,44.0,30.07,NE,34,5.0,-999.0,45,-99.99,,,-99.99,,2013-05-06 20:02:00,
2013-05-06 16:11:00,66.0,44.0,30.07,NE,34,5.0,-999.0,45,-99.99,,,-99.99,,2013-05-06 20:11:00,
2013-05-06 16:21:00,66.0,44.0,30.07,NE,38,5.0,-999.0,45,-99.99,,,-99.99,,2013-05-06 20:21:00,
2013-05-06 16:32:00,67.0,44.0,30.06,NE,43,6.0,-999.0,44,-99.99,,,-99.99,,2013-05-06 20:32:00,
2013-05-06 16:42:00,67.0,44.0,30.06,NE,43,6.0,-999.0,44,-99.99,,,-99.99,,2013-05-06 20:42:00,
2013-05-06 16:52:00,67.0,44.0,30.05,NE,34,6.0,-999.0,44,-99.99,,,-99.99,,2013-05-06 20:52:00,
2013-05-06 17:01:00,68.0,44.0,30.06,NE,40,5.0,-999.0,42,-99.99,,,-99.99,,2013-05-06 21:01:00,
2013-05-06 17:11:00,68.0,44.0,30.06,NE,40,5.0,-999.0,42,-99.99,,,-99.99,,2013-05-06 21:11:00,
2013-05-06 17:21:00,68.0,43.0,30.05,NE,40,6.0,-999.0,41,-99.99,,,-99.99,,2013-05-06 21:21:00,
2013-05-06 17:32:00,68.0,43.0,30.04,North,9,4.0,-999.0,41,-99.99,,,-99.99,,2013-05-06 21:32:00,
2013-05-06 17:43:00,68.0,43.0,30.04,North,9,4.0,-999.0,41,-99.99,,,-99.99,,2013-05-06 21:43:00,
2013-05-06 17:53:00,68.0,43.0,30.04,NE,44,6.0,-999.0,40,-99.99,,,-99.99,,2013-05-06 21:53:00,
2013-05-06 18:03:00,68.0,43.0,30.04,NNE,25,7.0,-999.0,40,-99.99,,,-99.99,,2013-05-06 22:03:00,
2013-05-06 18:12:00,68.0,43.0,30.04,NNE,25,7.0,-999.0,40,-99.99,,,-99.99,,2013-05-06 22:12:00,
2013-05-06 18:22:00,67.0,43.0,30.04,ENE,61,6.0,-999.0,41,-99.99,,,-99.99,,2013-05-06 22:22:00,
2013-05-06 18:33:00,67.0,43.0,30.04,ENE,59,5.0,-999.0,41,-99.99,,,-99.99,,2013-05-06 22:33:00,
2013-05-06 18:45:00,67.0,43.0,30.04,ENE,59,5.0,-999.0,41,-99.99,,,-99.99,,2013-05-06 22:45:00,
2013-05-06 18:52:00,67.0,43.0,30.04,SE,128,4.0,-999.0,41,-99.99,,,-99.99,,2013-05-06 22:52:00,
2013-05-06 19:03:00,67.0,43.0,30.04,NE,49,4.0,-999.0,41,-99.99,,,-99.99,,2013-05-06 23:03:00,
2013-05-06 19:12:00,67.0,43.0,30.04,NE,49,4.0,-999.0,41,-99.99,,,-99.99,,2013-05-06 23:12:00,
2013-05-06 19:22:00,67.0,43.0,30.03,NE,46,3.0,-999.0,41,-99.99,,,-99.99,,2013-05-06 23:22:00,
2013-05-06 19:32:00,66.0,42.0,30.04,NNE,16,5.0,-999.0,41,-99.99,,,-99.99,,2013-05-06 23:32:00,
2013-05-06 19:42:00,66.0,42.0,30.04,NNE,16,5.0,-999.0,41,-99.99,,,-99.99,,2013-05-06 23:42:00,
2013-05-06 19:52:00,65.0,41.0,30.04,NE,51,5.0,-999.0,42,-99.99,,,-99.99,,2013-05-06 23:52:00,
2013-05-06 20:01:00,65.0,43.0,30.04,ENE,73,5.0,-999.0,44,-99.99,,,-99.99,,2013-05-07 00:01:00,
2013-05-06 20:11:00,65.0,43.0,30.04,ENE,73,5.0,-999.0,44,-99.99,,,-99.99,,2013-05-07 00:11:00,
2013-05-06 20:21:00,64.0,42.0,30.04,NE,38,4.0,-999.0,45,-99.99,,,-99.99,,2013-05-07 00:21:00,
2013-05-06 20:31:00,63.0,42.0,30.04,NE,40,3.0,-999.0,47,-99.99,,,-99.99,,2013-05-07 00:31:00,
2013-05-06 20:41:00,63.0,42.0,30.04,NE,40,3.0,-999.0,47,-99.99,,,-99.99,,2013-05-07 00:41:00,
2013-05-06 20:51:00,62.0,42.0,30.05,NE,48,3.0,-999.0,48,-99.99,,,-99.99,,2013-05-07 00:51:00,
2013-05-06 21:01:00,61.0,42.0,30.05,East,82,1.0,-999.0,50,-99.99,,,-99.99,,2013-05-07 01:01:00,
2013-05-06 21:11:00,61.0,42.0,30.05,East,82,1.0,-999.0,50,-99.99,,,-99.99,,2013-05-07 01:11:00,
2013-05-06 21:21:00,60.0,43.0,30.05,ENE,76,1.0,-999.0,53,-99.99,,,-99.99,,2013-05-07 01:21:00,
2013-05-06 21:32:00,59.0,43.0,30.05,ENE,76,0.0,-999.0,55,-99.99,,,-99.99,,2013-05-07 01:32:00,
2013-05-06 21:42:00,59.0,43.0,30.05,ENE,76,0.0,-999.0,55,-99.99,,,-99.99,,2013-05-07 01:42:00,
2013-05-06 21:52:00,58.0,43.0,30.06,ENE,76,0.0,-999.0,57,-99.99,,,-99.99,,2013-05-07 01:52:00,
2013-05-06 22:02:00,56.0,42.0,30.06,ENE,76,0.0,-999.0,59,-99.99,,,-99.99,,2013-05-07 02:02:00,
2013-05-06 22:11:00,56.0,42.0,30.06,ENE,76,0.0,-999.0,59,-99.99,,,-99.99,,2013-05-07 02:11:00,
2013-05-06 22:21:00,55.0,42.0,30.06,ENE,76,0.0,-999.0,62,-99.99,,,-99.99,,2013-05-07 02:21:00,
2013-05-06 22:31:00,54.0,42.0,30.07,ENE,76,0.0,-999.0,64,-99.99,,,-99.99,,2013-05-07 02:31:00,
2013-05-06 22:41:00,54.0,42.0,30.07,ENE,76,0.0,-999.0,64,-99.99,,,-99.99,,2013-05-07 02:41:00,
2013-05-06 22:52:00,53.0,42.0,30.07,ENE,76,0.0,-999.0,66,-99.99,,,-99.99,,2013-05-07 02:52:00,
2013-05-06 23:01:00,52.0,42.0,30.07,ENE,76,0.0,-999.0,68,-99.99,,,-99.99,,2013-05-07 03:01:00,
2013-05-06 23:11:00,52.0,42.0,30.07,ENE,76,0.0,-999.0,68,-99.99,,,-99.99,,2013-05-07 03:11:00,
2013-05-06 23:22:00,51.0,41.0,30.07,ENE,76,0.0,-999.0,69,-99.99,,,-99.99,,2013-05-07 03:22:00,
2013-05-06 23:32:00,51.0,42.0,30.07,ENE,76,0.0,-999.0,71,-99.99,,,-99.99,,2013-05-07 03:32:00,
2013-05-06 23:42:00,51.0,42.0,30.07,ENE,76,0.0,-999.0,71,-99.99,,,-99.99,,2013-05-07 03:42:00,
2013-05-06 23:53:00,50.0,42.0,30.07,ENE,76,0.0,-999.0,73,-99.99,,,-99.99,,2013-05-07 03:53:00,